createdAt,value
2023-01-12T00:00:01.813Z,3.83
2023-01-12T00:02:33.951Z,3.97
2023-01-12T00:05:04.706Z,3.85
2023-01-12T00:07:35.442Z,3.15
2023-01-12T00:10:09.489Z,3.45
2023-01-12T00:12:40.229Z,2.95
2023-01-12T00:15:12.715Z,2.67
2023-01-12T00:17:43.504Z,3.75
2023-01-12T00:20:15.281Z,2.65
2023-01-12T00:22:46.481Z,3.92
2023-01-12T00:25:19.921Z,3.50
2023-01-12T00:27:52.786Z,3.65
2023-01-12T00:30:23.707Z,4.22
2023-01-12T00:32:54.550Z,3.78
2023-01-12T00:35:25.237Z,3.03
2023-01-12T00:37:55.994Z,3.42
2023-01-12T00:40:29.336Z,3.20
2023-01-12T00:43:12.292Z,3.25
2023-01-12T00:45:43.006Z,4.32
2023-01-12T00:48:15.785Z,3.75
2023-01-12T00:50:46.638Z,4.28
2023-01-12T00:53:17.367Z,3.80
2023-01-12T00:55:50.774Z,4.25
2023-01-12T00:58:21.540Z,2.97
2023-01-12T01:00:52.293Z,4.10
2023-01-12T01:03:23.065Z,3.55
2023-01-12T01:05:53.826Z,3.53
2023-01-12T01:08:24.537Z,4.25
2023-01-12T01:11:04.503Z,3.95
2023-01-12T01:13:36.722Z,3.58
2023-01-12T01:16:09.443Z,4.25
2023-01-12T01:18:40.251Z,4.18
2023-01-12T01:21:12.405Z,3.13
2023-01-12T01:23:43.907Z,3.08
2023-01-12T01:26:19.646Z,3.25
2023-01-12T01:28:50.697Z,3.88
2023-01-12T01:31:23.516Z,4.00
2023-01-12T01:33:54.990Z,3.63
2023-01-12T01:36:25.771Z,3.20
2023-01-12T01:38:56.775Z,4.38
2023-01-12T01:41:32.513Z,3.47
2023-01-12T01:44:05.031Z,3.80
2023-01-12T01:46:43.823Z,3.20
2023-01-12T01:49:27.432Z,3.38
2023-01-12T01:52:02.504Z,2.88
2023-01-12T01:54:36.881Z,4.03
2023-01-12T01:57:12.869Z,3.72
2023-01-12T01:59:49.188Z,3.10
2023-01-12T02:02:20.280Z,2.63
2023-01-12T02:04:51.308Z,4.03
2023-01-12T02:07:22.218Z,3.00
2023-01-12T02:09:53.815Z,2.58
2023-01-12T02:12:39.392Z,2.50
2023-01-12T02:15:23.553Z,3.22
2023-01-12T02:18:10.822Z,3.92
2023-01-12T02:21:03.478Z,3.58
2023-01-12T02:24:13.048Z,3.03
2023-01-12T02:27:18.227Z,3.50
2023-01-12T02:30:20.923Z,2.63
2023-01-12T02:33:03.592Z,3.70
2023-01-12T02:35:45.077Z,3.50
2023-01-12T02:38:24.518Z,2.47
2023-01-12T02:41:03.765Z,3.00
2023-01-12T02:43:33.416Z,4.43
2023-01-12T02:46:13.451Z,2.88
2023-01-12T02:48:51.675Z,2.63
2023-01-12T02:51:29.369Z,3.17
2023-01-12T02:54:05.731Z,2.70
2023-01-12T02:56:40.769Z,2.53
2023-01-12T02:59:15.531Z,3.10
2023-01-12T03:01:51.387Z,2.85
2023-01-12T03:04:28.028Z,2.40
2023-01-12T03:07:28.004Z,2.30
2023-01-12T03:10:03.035Z,2.78
2023-01-12T03:12:37.914Z,2.33
2023-01-12T03:15:11.700Z,1.75
2023-01-12T03:17:46.472Z,2.50
2023-01-12T03:20:23.199Z,2.05
2023-01-12T03:22:57.354Z,2.58
2023-01-12T03:25:29.698Z,2.30
2023-01-12T03:28:04.049Z,2.10
2023-01-12T03:30:41.981Z,1.92
2023-01-12T03:33:13.597Z,2.10
2023-01-12T03:35:54.597Z,1.77
2023-01-12T03:38:30.604Z,2.20
2023-01-12T03:41:07.913Z,2.00
2023-01-12T03:43:45.150Z,2.05
2023-01-12T03:46:23.092Z,2.38
2023-01-12T03:48:57.803Z,2.10
2023-01-12T03:51:35.554Z,2.20
2023-01-12T03:54:08.075Z,1.88
2023-01-12T03:56:41.077Z,2.63
2023-01-12T03:59:12.485Z,2.55
2023-01-12T04:01:44.809Z,2.42
2023-01-12T04:04:15.542Z,2.17
2023-01-12T04:06:49.057Z,2.13
2023-01-12T04:09:20.153Z,2.20
2023-01-12T04:12:18.039Z,3.38
2023-01-12T04:17:24.421Z,1.70
2023-01-12T04:19:55.346Z,2.05
2023-01-12T04:22:41.074Z,2.20
2023-01-12T04:25:12.611Z,2.65
2023-01-12T04:27:49.976Z,2.05
2023-01-12T04:30:24.887Z,3.92
2023-01-12T04:32:56.527Z,2.20
2023-01-12T04:35:27.861Z,2.60
2023-01-12T04:38:01.424Z,2.63
2023-01-12T04:40:32.115Z,2.22
2023-01-12T04:43:08.451Z,2.38
2023-01-12T04:45:41.804Z,2.50
2023-01-12T04:48:14.751Z,2.47
2023-01-12T04:50:46.575Z,2.83
2023-01-12T04:53:22.031Z,2.70
2023-01-12T04:55:52.792Z,2.10
2023-01-12T04:58:23.575Z,2.00
2023-01-12T05:00:54.302Z,1.70
2023-01-12T05:03:25.021Z,1.63
2023-01-12T05:05:55.747Z,2.38
2023-01-12T05:08:41.327Z,1.88
2023-01-12T05:11:12.068Z,1.95
2023-01-12T05:13:42.892Z,2.25
2023-01-12T05:16:15.773Z,2.25
2023-01-12T05:18:47.068Z,2.67
2023-01-12T05:21:19.605Z,2.38
2023-01-12T05:23:54.542Z,2.40
2023-01-12T05:26:25.318Z,2.13
2023-01-12T05:28:56.156Z,2.67
2023-01-12T05:31:26.865Z,2.47
2023-01-12T05:33:57.734Z,2.35
2023-01-12T05:36:28.484Z,3.55
2023-01-12T05:39:01.967Z,2.20
2023-01-12T05:41:32.745Z,2.15
2023-01-12T05:44:00.881Z,1.90
2023-01-12T05:46:34.000Z,2.90
2023-01-12T05:49:04.761Z,2.03
2023-01-12T05:51:35.538Z,2.53
2023-01-12T05:54:09.236Z,3.22
2023-01-12T05:56:39.982Z,3.30
2023-01-12T05:59:13.531Z,2.80
2023-01-12T06:01:44.193Z,3.20
2023-01-12T06:04:14.446Z,2.38
2023-01-12T06:06:46.598Z,2.45
2023-01-12T06:09:19.868Z,2.58
2023-01-12T06:12:02.481Z,2.90
2023-01-12T06:14:33.037Z,2.38
2023-01-12T06:17:03.357Z,1.98
2023-01-12T06:19:33.664Z,2.00
2023-01-12T06:22:04.250Z,2.42
2023-01-12T06:24:37.593Z,2.85
2023-01-12T06:27:08.289Z,2.75
2023-01-12T06:29:38.528Z,2.47
2023-01-12T06:32:08.833Z,2.45
2023-01-12T06:34:39.242Z,2.15
2023-01-12T06:37:12.104Z,1.90
2023-01-12T06:39:44.984Z,2.55
2023-01-12T06:42:27.733Z,2.50
2023-01-12T06:44:58.144Z,1.75
2023-01-12T06:47:31.120Z,2.30
2023-01-12T06:50:01.458Z,3.97
2023-01-12T06:52:31.914Z,2.47
2023-01-12T06:55:04.811Z,3.33
2023-01-12T06:57:35.138Z,2.78
2023-01-12T07:00:07.055Z,2.40
2023-01-12T07:02:37.424Z,2.78
2023-01-12T07:05:08.078Z,2.20
2023-01-12T07:07:40.413Z,2.70
2023-01-12T07:10:14.894Z,1.77
2023-01-12T07:12:45.113Z,2.30
2023-01-12T07:15:16.503Z,2.53
2023-01-12T07:17:46.750Z,2.95
2023-01-12T07:20:17.244Z,2.55
2023-01-12T07:22:47.482Z,1.75
2023-01-12T07:25:20.415Z,2.22
2023-01-12T07:27:54.587Z,2.47
2023-01-12T07:30:25.517Z,1.83
2023-01-12T07:32:56.061Z,2.08
2023-01-12T07:35:27.158Z,1.52
2023-01-12T07:37:57.354Z,1.92
2023-01-12T07:40:30.222Z,1.85
2023-01-12T07:43:03.392Z,1.92
2023-01-12T07:45:34.074Z,2.80
2023-01-12T07:48:04.455Z,1.65
2023-01-12T07:50:35.288Z,2.53
2023-01-12T07:53:06.636Z,2.17
2023-01-12T07:55:43.745Z,2.17
2023-01-12T07:58:14.487Z,2.67
2023-01-12T08:00:44.933Z,1.95
2023-01-12T08:03:16.657Z,2.13
2023-01-12T08:05:47.146Z,2.83
2023-01-12T08:08:17.472Z,2.30
2023-01-12T08:10:50.430Z,2.58
2023-01-12T08:13:23.310Z,3.97
2023-01-12T08:15:54.803Z,2.17
2023-01-12T08:18:30.372Z,2.58
2023-01-12T08:21:03.249Z,3.45
2023-01-12T08:23:41.001Z,2.90
2023-01-12T08:26:19.513Z,3.60
2023-01-12T08:28:55.675Z,3.40
2023-01-12T08:31:28.339Z,2.75
2023-01-12T08:33:59.334Z,2.00
2023-01-12T08:36:31.367Z,2.25
2023-01-12T08:39:04.259Z,2.78
2023-01-12T08:41:37.788Z,2.70
2023-01-12T08:44:11.004Z,2.55
2023-01-12T08:46:48.720Z,2.30
2023-01-12T08:49:21.391Z,1.83
2023-01-12T08:51:52.442Z,2.85
2023-01-12T08:54:24.249Z,2.60
2023-01-12T08:56:57.089Z,2.20
2023-01-12T08:59:27.393Z,3.75
2023-01-12T09:01:57.866Z,2.88
2023-01-12T09:04:28.558Z,3.22
2023-01-12T09:07:00.181Z,3.60
2023-01-12T09:09:30.896Z,3.20
2023-01-12T09:12:03.787Z,2.15
2023-01-12T09:14:37.819Z,2.97
2023-01-12T09:17:08.771Z,2.30
2023-01-12T09:19:38.962Z,2.28
2023-01-12T09:22:09.143Z,3.40
2023-01-12T09:24:39.611Z,2.60
2023-01-12T09:27:13.708Z,2.83
2023-01-12T09:29:44.243Z,2.65
2023-01-12T09:32:15.611Z,3.05
2023-01-12T09:34:48.531Z,2.63
2023-01-12T09:37:18.901Z,3.20
2023-01-12T09:39:49.137Z,5.78
2023-01-12T09:42:37.204Z,4.78
2023-01-12T09:45:32.102Z,6.57
2023-01-12T09:48:04.123Z,4.25
2023-01-12T09:50:37.731Z,5.30
2023-01-12T09:53:15.161Z,6.55
2023-01-12T09:55:55.042Z,6.30
2023-01-12T10:34:59.136Z,3.88
2023-01-12T10:37:29.663Z,2.72
2023-01-12T10:40:00.068Z,3.10
2023-01-12T10:42:42.861Z,2.85
2023-01-12T10:45:24.218Z,3.72
2023-01-12T10:47:57.863Z,3.33
2023-01-12T10:50:33.212Z,2.85
2023-01-12T10:53:06.596Z,3.08
2023-01-12T10:55:41.214Z,3.17
2023-01-12T10:58:23.038Z,2.90
2023-01-12T11:00:54.563Z,2.70
2023-01-12T11:03:42.573Z,3.20
2023-01-12T11:06:30.696Z,3.20
2023-01-12T11:09:01.237Z,3.22
2023-01-12T11:11:34.176Z,3.95
2023-01-12T11:14:06.768Z,2.85
2023-01-12T11:16:41.911Z,2.95
2023-01-12T11:19:19.785Z,2.58
2023-01-12T11:21:56.848Z,2.95
2023-01-12T11:24:36.952Z,2.95
2023-01-12T11:27:15.744Z,2.05
2023-01-12T11:29:54.946Z,2.80
2023-01-12T11:32:36.978Z,3.33
2023-01-12T11:35:20.710Z,2.55
2023-01-12T11:37:56.886Z,5.30
2023-01-12T11:40:33.803Z,3.57
2023-01-12T11:43:27.119Z,2.28
2023-01-12T11:46:04.029Z,3.33
2023-01-12T11:51:08.753Z,3.05
2023-01-12T11:53:42.859Z,2.20
2023-01-12T11:56:27.460Z,3.53
2023-01-12T11:59:07.765Z,2.97
2023-01-12T12:01:45.695Z,2.97
2023-01-12T12:04:33.614Z,2.92
2023-01-12T12:07:23.701Z,4.10
2023-01-12T12:10:18.331Z,3.20
2023-01-12T12:13:14.531Z,2.72
2023-01-12T12:15:53.014Z,3.17
2023-01-12T12:18:38.693Z,2.58
2023-01-12T12:21:20.721Z,4.75
2023-01-12T12:23:59.009Z,3.65
2023-01-12T12:26:38.394Z,2.97
2023-01-12T12:29:32.929Z,2.42
2023-01-12T12:32:17.929Z,2.60
2023-01-12T12:35:07.703Z,3.78
2023-01-12T12:37:51.987Z,2.80
2023-01-12T12:40:58.107Z,2.42
2023-01-12T12:43:52.626Z,2.60
2023-01-12T12:46:31.914Z,2.92
2023-01-12T12:49:06.753Z,2.80
2023-01-12T12:51:39.567Z,3.45
2023-01-12T12:54:18.447Z,2.90
2023-01-12T12:56:49.843Z,2.50
2023-01-12T12:59:51.973Z,2.80
2023-01-12T13:02:42.475Z,3.00
2023-01-12T13:05:13.636Z,2.50
2023-01-12T13:07:54.453Z,2.85
2023-01-12T13:10:32.822Z,2.53
2023-01-12T13:13:27.239Z,2.33
2023-01-12T13:16:48.214Z,2.53
2023-01-12T13:19:37.650Z,2.47
2023-01-12T13:22:30.989Z,2.25
2023-01-12T13:25:03.049Z,3.22
2023-01-12T13:27:55.649Z,2.10
2023-01-12T13:30:52.759Z,2.13
2023-01-12T13:33:28.881Z,2.33
2023-01-12T13:36:11.865Z,3.17
2023-01-12T13:38:58.662Z,1.65
2023-01-12T13:41:48.194Z,2.17
2023-01-12T13:44:24.758Z,2.55
2023-01-12T13:47:00.641Z,2.30
2023-01-12T13:49:33.587Z,2.40
2023-01-12T13:52:09.689Z,2.03
2023-01-12T13:54:51.467Z,1.70
2023-01-12T13:57:23.878Z,2.20
2023-01-12T14:00:04.825Z,2.15
2023-01-12T14:02:44.398Z,1.50
2023-01-12T14:05:32.271Z,2.42
2023-01-12T14:08:19.389Z,2.25
2023-01-12T14:10:56.831Z,1.80
2023-01-12T14:13:51.134Z,1.83
2023-01-12T14:16:34.062Z,2.72
2023-01-12T14:19:21.606Z,1.77
2023-01-12T14:24:31.589Z,2.22
2023-01-12T14:27:02.020Z,2.53
2023-01-12T14:29:32.519Z,1.80
2023-01-12T14:32:05.453Z,1.40
2023-01-12T14:34:39.148Z,2.00
2023-01-12T14:37:30.781Z,1.50
2023-01-12T14:40:03.918Z,1.60
2023-01-12T14:42:47.659Z,1.95
2023-01-12T14:45:40.654Z,1.98
2023-01-12T14:48:29.597Z,2.15
2023-01-12T14:51:16.092Z,2.88
2023-01-12T14:53:50.598Z,2.40
2023-01-12T14:56:29.196Z,2.53
2023-01-12T14:59:16.078Z,3.00
2023-01-12T15:01:46.555Z,2.03
2023-01-12T15:04:23.670Z,1.98
2023-01-12T15:07:04.547Z,2.40
2023-01-12T15:09:37.228Z,3.13
2023-01-12T15:12:48.735Z,2.28
2023-01-12T15:15:21.946Z,2.78
2023-01-12T15:18:06.015Z,2.90
2023-01-12T15:20:51.606Z,2.55
2023-01-12T15:23:42.679Z,2.50
2023-01-12T15:26:12.938Z,2.40
2023-01-12T15:28:46.341Z,2.25
2023-01-12T15:31:22.013Z,2.25
2023-01-12T15:33:52.580Z,3.20
2023-01-12T15:36:23.210Z,2.70
2023-01-12T15:38:53.603Z,4.30
2023-01-12T15:41:40.650Z,2.33
2023-01-12T15:44:16.809Z,2.60
2023-01-12T15:46:47.502Z,2.77
2023-01-12T15:49:18.665Z,2.05
2023-01-12T15:51:51.928Z,2.58
2023-01-12T15:54:23.536Z,2.00
2023-01-12T15:56:54.046Z,1.77
2023-01-12T15:59:26.951Z,1.88
2023-01-12T16:01:57.451Z,2.10
2023-01-12T16:04:42.806Z,2.08
2023-01-12T16:07:14.945Z,1.80
2023-01-12T16:09:45.835Z,1.83
2023-01-12T16:12:16.468Z,2.15
2023-01-12T16:14:49.468Z,2.30
2023-01-12T16:17:20.084Z,1.70
2023-01-12T16:19:56.709Z,1.90
2023-01-12T16:22:41.998Z,1.90
2023-01-12T16:25:17.236Z,2.08
2023-01-12T16:27:47.672Z,2.15
2023-01-12T16:30:30.469Z,1.80
2023-01-12T16:33:03.532Z,2.03
2023-01-12T16:35:48.572Z,1.75
2023-01-12T16:38:29.088Z,2.40
2023-01-12T16:41:10.878Z,2.38
2023-01-12T16:43:59.237Z,1.85
2023-01-12T16:46:36.850Z,1.50
2023-01-12T16:49:07.621Z,1.65
2023-01-12T16:51:43.534Z,1.98
2023-01-12T16:54:22.316Z,2.03
2023-01-12T16:56:53.995Z,2.20
2023-01-12T16:59:25.911Z,1.85
2023-01-12T17:01:59.010Z,2.17
2023-01-12T17:04:30.287Z,2.35
2023-01-12T17:07:02.504Z,2.25
2023-01-12T17:09:33.786Z,2.15
2023-01-12T17:12:07.775Z,2.58
2023-01-12T17:14:41.600Z,2.10
2023-01-12T17:17:16.169Z,2.28
2023-01-12T17:19:48.218Z,2.90
2023-01-12T17:22:22.392Z,1.88
2023-01-12T17:24:54.457Z,2.65
2023-01-12T17:27:25.755Z,2.47
2023-01-12T17:29:56.029Z,2.42
2023-01-12T17:32:29.335Z,2.80
2023-01-12T17:35:02.113Z,1.98
2023-01-12T17:37:32.869Z,2.95
2023-01-12T17:40:03.960Z,2.10
2023-01-12T17:42:47.572Z,3.17
2023-01-12T17:45:30.408Z,2.25
2023-01-12T17:48:12.169Z,2.63
2023-01-12T17:50:43.476Z,2.80
2023-01-12T17:53:15.313Z,1.88
2023-01-12T17:55:51.643Z,2.08
2023-01-12T17:58:44.227Z,2.08
2023-01-12T18:01:20.916Z,1.88
2023-01-12T18:03:54.667Z,1.98
2023-01-12T18:06:40.257Z,2.28
2023-01-12T18:09:17.843Z,1.90
2023-01-12T18:11:50.383Z,2.40
2023-01-12T18:14:24.732Z,1.60
2023-01-12T18:17:05.887Z,2.00
2023-01-12T18:19:41.504Z,2.15
2023-01-12T18:22:34.371Z,2.00
2023-01-12T18:25:35.680Z,2.08
2023-01-12T18:28:10.672Z,2.13
2023-01-12T18:30:44.189Z,2.08
2023-01-12T18:33:27.091Z,2.38
2023-01-12T18:36:33.147Z,2.03
2023-01-12T18:39:39.240Z,2.50
2023-01-12T18:42:38.406Z,2.35
2023-01-12T18:45:24.701Z,1.98
2023-01-12T18:48:26.128Z,1.45
2023-01-12T18:51:27.050Z,1.77
2023-01-12T18:57:16.974Z,1.60
2023-01-12T18:59:55.849Z,1.98
2023-01-12T19:02:53.611Z,1.50
2023-01-12T19:05:33.694Z,1.90
2023-01-12T19:11:39.965Z,1.25
2023-01-12T19:15:09.013Z,1.70
2023-01-12T19:17:59.105Z,1.38
2023-01-12T19:21:15.913Z,1.15
2023-01-12T19:24:10.933Z,1.23
2023-01-12T19:27:00.857Z,3.13
2023-01-12T19:29:34.702Z,1.83
2023-01-12T19:32:08.096Z,1.27
2023-01-12T19:34:38.375Z,1.38
2023-01-12T19:37:09.372Z,1.20
2023-01-12T19:40:01.294Z,0.90
2023-01-12T19:42:44.972Z,1.33
2023-01-12T19:45:15.631Z,1.52
2023-01-12T19:47:46.069Z,1.60
2023-01-12T19:50:17.097Z,1.23
2023-01-12T19:52:47.596Z,1.40
2023-01-12T19:55:20.660Z,1.10
2023-01-12T19:57:51.580Z,1.60
2023-01-12T20:00:26.108Z,2.85
2023-01-12T20:02:59.345Z,3.65
2023-01-12T20:05:30.644Z,3.05
2023-01-12T20:08:01.686Z,2.92
2023-01-12T20:10:35.683Z,2.88
2023-01-12T20:13:07.212Z,3.20
2023-01-12T20:15:41.201Z,3.20
2023-01-12T20:18:13.914Z,4.57
2023-01-12T20:20:45.673Z,4.43
2023-01-12T20:23:20.547Z,3.40
2023-01-12T20:25:54.200Z,4.15
2023-01-12T20:28:25.177Z,3.92
2023-01-12T20:30:58.016Z,3.60
2023-01-12T20:33:30.584Z,2.25
2023-01-12T20:36:01.618Z,1.30
2023-01-12T20:38:32.398Z,0.90
2023-01-12T20:41:07.731Z,1.10
2023-01-12T20:43:38.996Z,1.67
2023-01-12T20:46:14.214Z,1.40
2023-01-12T20:48:45.520Z,1.15
2023-01-12T20:51:18.546Z,1.02
2023-01-12T20:53:49.459Z,2.20
2023-01-12T20:56:24.877Z,1.00
2023-01-12T20:58:55.708Z,1.02
2023-01-12T21:01:26.658Z,0.88
2023-01-12T21:03:57.594Z,0.70
2023-01-12T21:06:28.421Z,0.98
2023-01-12T21:08:59.393Z,0.88
2023-01-12T21:11:33.077Z,0.90
2023-01-12T21:14:04.103Z,0.80
2023-01-12T21:16:35.423Z,1.58
2023-01-12T21:19:06.780Z,1.40
2023-01-12T21:21:37.880Z,0.95
2023-01-12T21:24:09.394Z,0.75
2023-01-12T21:26:42.984Z,1.15
2023-01-12T21:29:13.802Z,0.80
2023-01-12T21:31:44.816Z,1.02
2023-01-12T21:34:16.244Z,0.60
2023-01-12T21:36:47.299Z,0.70
2023-01-12T21:39:18.390Z,0.70
2023-01-12T21:42:04.196Z,1.08
2023-01-12T21:44:35.788Z,0.63
2023-01-12T21:47:06.714Z,0.63
2023-01-12T21:49:37.540Z,0.60
2023-01-12T21:52:08.642Z,0.50
2023-01-12T21:54:39.545Z,0.40
2023-01-12T21:57:13.134Z,0.60
2023-01-12T21:59:43.974Z,0.70
2023-01-12T22:02:15.824Z,1.10
2023-01-12T22:04:46.652Z,4.82
2023-01-12T22:07:17.615Z,2.85
2023-01-12T22:09:48.431Z,3.38
2023-01-12T22:12:21.902Z,1.35
2023-01-12T22:14:52.760Z,1.00
2023-01-12T22:17:23.666Z,1.00
2023-01-12T22:19:54.595Z,1.98
2023-01-12T22:22:25.485Z,0.60
2023-01-12T22:24:56.307Z,2.60
2023-01-12T22:27:29.720Z,2.20
2023-01-12T22:30:01.629Z,2.40
2023-01-12T22:32:32.903Z,3.25
2023-01-12T22:35:04.475Z,3.17
2023-01-12T22:37:38.855Z,4.47
2023-01-12T22:40:12.269Z,4.57
2023-01-12T22:42:58.649Z,4.57
2023-01-12T22:45:29.563Z,1.77
2023-01-12T22:48:00.406Z,2.10
2023-01-12T22:50:31.202Z,1.85
2023-01-12T22:53:03.070Z,2.42
2023-01-12T22:55:33.930Z,1.90
2023-01-12T22:58:07.522Z,2.22
2023-01-12T23:00:40.270Z,1.92
2023-01-12T23:03:12.036Z,2.45
2023-01-12T23:05:48.505Z,1.98
2023-01-12T23:08:20.235Z,1.77
2023-01-12T23:10:51.074Z,1.30
2023-01-12T23:13:24.746Z,1.35
2023-01-12T23:15:58.324Z,1.20
2023-01-12T23:18:31.842Z,0.88
2023-01-12T23:21:11.321Z,1.77
2023-01-12T23:23:43.576Z,1.80
2023-01-12T23:26:16.198Z,0.77
2023-01-12T23:28:53.365Z,1.23
2023-01-12T23:31:26.278Z,1.45
2023-01-12T23:33:57.305Z,1.50
2023-01-12T23:36:30.376Z,1.00
2023-01-12T23:39:03.065Z,1.73
2023-01-12T23:41:35.471Z,1.90
2023-01-12T23:44:10.921Z,1.40
2023-01-12T23:46:43.340Z,1.42
2023-01-12T23:49:14.805Z,1.30
2023-01-12T23:51:45.728Z,1.25
2023-01-12T23:54:21.021Z,1.23
2023-01-12T23:56:55.235Z,1.27
2023-01-12T23:59:28.981Z,1.05
